sensor_id;sensor_type;location;lat;lon;timestamp;P1;durP1;ratioP1;P2;durP2;ratioP2
10041;SDS011;5061;49.068;12.058;2023-02-05T00:02:43;3.30;;;1.93;;
10041;SDS011;5061;49.068;12.058;2023-02-05T00:06:04;4.57;;;2.23;;
10041;SDS011;5061;49.068;12.058;2023-02-05T00:09:25;3.03;;;1.73;;
10041;SDS011;5061;49.068;12.058;2023-02-05T00:12:47;5.90;;;1.90;;
10041;SDS011;5061;49.068;12.058;2023-02-05T00:19:33;3.63;;;2.37;;
10041;SDS011;5061;49.068;12.058;2023-02-05T00:22:53;1.43;;;1.30;;
10041;SDS011;5061;49.068;12.058;2023-02-05T00:26:14;2.30;;;1.90;;
10041;SDS011;5061;49.068;12.058;2023-02-05T00:29:35;1.73;;;1.47;;
10041;SDS011;5061;49.068;12.058;2023-02-05T00:32:55;1.43;;;1.33;;
10041;SDS011;5061;49.068;12.058;2023-02-05T00:36:16;1.60;;;1.33;;
10041;SDS011;5061;49.068;12.058;2023-02-05T00:39:38;2.30;;;1.77;;
10041;SDS011;5061;49.068;12.058;2023-02-05T00:42:59;1.97;;;1.20;;
10041;SDS011;5061;49.068;12.058;2023-02-05T00:46:19;1.53;;;1.37;;
10041;SDS011;5061;49.068;12.058;2023-02-05T00:53:03;1.00;;;0.90;;
10041;SDS011;5061;49.068;12.058;2023-02-05T00:56:23;1.27;;;1.13;;
10041;SDS011;5061;49.068;12.058;2023-02-05T00:59:44;1.73;;;1.43;;
10041;SDS011;5061;49.068;12.058;2023-02-05T01:03:05;1.43;;;1.00;;
10041;SDS011;5061;49.068;12.058;2023-02-05T01:06:25;2.60;;;1.50;;
10041;SDS011;5061;49.068;12.058;2023-02-05T01:09:48;2.97;;;1.87;;
10041;SDS011;5061;49.068;12.058;2023-02-05T01:13:09;4.10;;;2.57;;
10041;SDS011;5061;49.068;12.058;2023-02-05T01:16:30;2.27;;;1.90;;
10041;SDS011;5061;49.068;12.058;2023-02-05T01:19:50;2.83;;;2.10;;
10041;SDS011;5061;49.068;12.058;2023-02-05T01:23:11;2.83;;;1.87;;
10041;SDS011;5061;49.068;12.058;2023-02-05T01:26:31;2.70;;;2.23;;
10041;SDS011;5061;49.068;12.058;2023-02-05T01:29:52;5.73;;;2.17;;
10041;SDS011;5061;49.068;12.058;2023-02-05T01:33:13;4.07;;;2.80;;
10041;SDS011;5061;49.068;12.058;2023-02-05T01:36:34;4.77;;;2.63;;
10041;SDS011;5061;49.068;12.058;2023-02-05T01:39:55;3.10;;;2.00;;
10041;SDS011;5061;49.068;12.058;2023-02-05T01:43:16;3.87;;;2.67;;
10041;SDS011;5061;49.068;12.058;2023-02-05T01:46:42;1.53;;;1.40;;
10041;SDS011;5061;49.068;12.058;2023-02-05T01:50:03;3.17;;;2.17;;
10041;SDS011;5061;49.068;12.058;2023-02-05T01:53:26;2.70;;;1.90;;
10041;SDS011;5061;49.068;12.058;2023-02-05T01:57:03;2.90;;;2.03;;
10041;SDS011;5061;49.068;12.058;2023-02-05T02:00:30;2.77;;;2.30;;
10041;SDS011;5061;49.068;12.058;2023-02-05T02:03:50;5.90;;;2.00;;
10041;SDS011;5061;49.068;12.058;2023-02-05T02:07:16;2.70;;;1.97;;
10041;SDS011;5061;49.068;12.058;2023-02-05T02:10:41;2.10;;;1.80;;
10041;SDS011;5061;49.068;12.058;2023-02-05T02:14:03;2.03;;;1.70;;
10041;SDS011;5061;49.068;12.058;2023-02-05T02:17:29;1.40;;;1.30;;
10041;SDS011;5061;49.068;12.058;2023-02-05T02:24:41;1.50;;;1.40;;
10041;SDS011;5061;49.068;12.058;2023-02-05T02:32:23;2.00;;;1.50;;
10041;SDS011;5061;49.068;12.058;2023-02-05T02:36:02;1.73;;;1.50;;
10041;SDS011;5061;49.068;12.058;2023-02-05T02:39:47;1.73;;;1.60;;
10041;SDS011;5061;49.068;12.058;2023-02-05T02:43:28;2.93;;;1.70;;
10041;SDS011;5061;49.068;12.058;2023-02-05T02:46:58;2.70;;;1.70;;
10041;SDS011;5061;49.068;12.058;2023-02-05T02:50:27;2.87;;;1.60;;
10041;SDS011;5061;49.068;12.058;2023-02-05T02:53:55;2.10;;;1.50;;
10041;SDS011;5061;49.068;12.058;2023-02-05T02:57:17;1.13;;;1.03;;
10041;SDS011;5061;49.068;12.058;2023-02-05T03:00:40;1.93;;;1.50;;
10041;SDS011;5061;49.068;12.058;2023-02-05T03:04:06;2.60;;;1.67;;
10041;SDS011;5061;49.068;12.058;2023-02-05T03:07:32;2.33;;;1.50;;
10041;SDS011;5061;49.068;12.058;2023-02-05T03:11:00;2.20;;;1.33;;
10041;SDS011;5061;49.068;12.058;2023-02-05T03:14:28;1.50;;;1.40;;
10041;SDS011;5061;49.068;12.058;2023-02-05T03:17:50;2.20;;;1.60;;
10041;SDS011;5061;49.068;12.058;2023-02-05T03:21:18;1.77;;;1.57;;
10041;SDS011;5061;49.068;12.058;2023-02-05T03:24:44;2.33;;;1.70;;
10041;SDS011;5061;49.068;12.058;2023-02-05T03:28:05;1.70;;;1.57;;
10041;SDS011;5061;49.068;12.058;2023-02-05T03:35:31;3.60;;;2.20;;
10041;SDS011;5061;49.068;12.058;2023-02-05T03:39:23;2.43;;;1.50;;
10041;SDS011;5061;49.068;12.058;2023-02-05T03:54:11;3.77;;;2.40;;
10041;SDS011;5061;49.068;12.058;2023-02-05T03:57:53;4.50;;;2.40;;
10041;SDS011;5061;49.068;12.058;2023-02-05T04:01:39;5.43;;;3.10;;
10041;SDS011;5061;49.068;12.058;2023-02-05T04:05:07;3.47;;;2.77;;
10041;SDS011;5061;49.068;12.058;2023-02-05T04:08:28;3.90;;;2.47;;
10041;SDS011;5061;49.068;12.058;2023-02-05T04:11:49;3.73;;;3.03;;
10041;SDS011;5061;49.068;12.058;2023-02-05T04:15:10;4.63;;;2.60;;
10041;SDS011;5061;49.068;12.058;2023-02-05T04:18:33;3.03;;;2.37;;
10041;SDS011;5061;49.068;12.058;2023-02-05T04:21:54;3.50;;;2.50;;
10041;SDS011;5061;49.068;12.058;2023-02-05T04:25:15;1.87;;;1.77;;
10041;SDS011;5061;49.068;12.058;2023-02-05T04:28:35;4.07;;;2.50;;
10041;SDS011;5061;49.068;12.058;2023-02-05T04:31:56;3.33;;;1.93;;
10041;SDS011;5061;49.068;12.058;2023-02-05T04:35:24;3.00;;;2.07;;
10041;SDS011;5061;49.068;12.058;2023-02-05T04:38:48;2.50;;;1.80;;
10041;SDS011;5061;49.068;12.058;2023-02-05T04:42:09;2.20;;;1.70;;
10041;SDS011;5061;49.068;12.058;2023-02-05T04:45:34;2.47;;;1.43;;
10041;SDS011;5061;49.068;12.058;2023-02-05T04:48:55;2.60;;;1.87;;
10041;SDS011;5061;49.068;12.058;2023-02-05T04:52:16;2.13;;;1.40;;
10041;SDS011;5061;49.068;12.058;2023-02-05T04:55:36;3.97;;;1.80;;
10041;SDS011;5061;49.068;12.058;2023-02-05T04:58:57;1.67;;;1.33;;
10041;SDS011;5061;49.068;12.058;2023-02-05T05:02:17;2.10;;;1.50;;
10041;SDS011;5061;49.068;12.058;2023-02-05T05:05:38;1.93;;;1.70;;
10041;SDS011;5061;49.068;12.058;2023-02-05T05:08:59;2.10;;;1.60;;
10041;SDS011;5061;49.068;12.058;2023-02-05T05:12:19;1.57;;;1.30;;
10041;SDS011;5061;49.068;12.058;2023-02-05T05:15:40;2.80;;;1.83;;
10041;SDS011;5061;49.068;12.058;2023-02-05T05:19:01;2.40;;;1.50;;
10041;SDS011;5061;49.068;12.058;2023-02-05T05:22:21;1.40;;;1.30;;
10041;SDS011;5061;49.068;12.058;2023-02-05T05:25:43;1.47;;;1.33;;
10041;SDS011;5061;49.068;12.058;2023-02-05T05:29:04;1.53;;;1.40;;
10041;SDS011;5061;49.068;12.058;2023-02-05T05:32:25;1.67;;;1.57;;
10041;SDS011;5061;49.068;12.058;2023-02-05T05:35:45;2.30;;;1.63;;
10041;SDS011;5061;49.068;12.058;2023-02-05T05:39:06;1.90;;;1.70;;
10041;SDS011;5061;49.068;12.058;2023-02-05T05:42:45;1.83;;;1.43;;
10041;SDS011;5061;49.068;12.058;2023-02-05T05:46:24;4.50;;;2.30;;
10041;SDS011;5061;49.068;12.058;2023-02-05T05:49:45;3.87;;;2.97;;
10041;SDS011;5061;49.068;12.058;2023-02-05T05:53:06;3.07;;;2.43;;
10041;SDS011;5061;49.068;12.058;2023-02-05T05:56:27;4.17;;;2.70;;
10041;SDS011;5061;49.068;12.058;2023-02-05T05:59:51;3.17;;;2.33;;
10041;SDS011;5061;49.068;12.058;2023-02-05T06:03:12;3.67;;;2.37;;
10041;SDS011;5061;49.068;12.058;2023-02-05T06:06:33;2.57;;;2.37;;
10041;SDS011;5061;49.068;12.058;2023-02-05T06:09:53;2.27;;;1.63;;
10041;SDS011;5061;49.068;12.058;2023-02-05T06:13:14;2.83;;;1.80;;
10041;SDS011;5061;49.068;12.058;2023-02-05T06:16:35;2.03;;;1.50;;
10041;SDS011;5061;49.068;12.058;2023-02-05T06:19:59;3.20;;;1.87;;
10041;SDS011;5061;49.068;12.058;2023-02-05T06:23:20;2.00;;;1.60;;
10041;SDS011;5061;49.068;12.058;2023-02-05T06:26:41;2.20;;;1.77;;
10041;SDS011;5061;49.068;12.058;2023-02-05T06:30:02;1.97;;;1.80;;
10041;SDS011;5061;49.068;12.058;2023-02-05T06:33:23;1.60;;;1.30;;
10041;SDS011;5061;49.068;12.058;2023-02-05T06:36:43;2.37;;;1.90;;
10041;SDS011;5061;49.068;12.058;2023-02-05T06:40:04;2.63;;;1.60;;
10041;SDS011;5061;49.068;12.058;2023-02-05T06:43:25;2.33;;;1.60;;
10041;SDS011;5061;49.068;12.058;2023-02-05T06:46:48;1.30;;;1.20;;
10041;SDS011;5061;49.068;12.058;2023-02-05T06:50:09;1.30;;;1.20;;
10041;SDS011;5061;49.068;12.058;2023-02-05T06:53:30;1.90;;;1.73;;
10041;SDS011;5061;49.068;12.058;2023-02-05T06:56:53;1.83;;;1.60;;
10041;SDS011;5061;49.068;12.058;2023-02-05T07:00:14;3.33;;;1.63;;
10041;SDS011;5061;49.068;12.058;2023-02-05T07:03:35;1.97;;;1.57;;
10041;SDS011;5061;49.068;12.058;2023-02-05T07:06:56;2.90;;;1.70;;
10041;SDS011;5061;49.068;12.058;2023-02-05T07:10:17;2.67;;;1.70;;
10041;SDS011;5061;49.068;12.058;2023-02-05T07:13:38;2.37;;;1.70;;
10041;SDS011;5061;49.068;12.058;2023-02-05T07:16:59;3.27;;;2.20;;
10041;SDS011;5061;49.068;12.058;2023-02-05T07:20:20;1.83;;;1.40;;
10041;SDS011;5061;49.068;12.058;2023-02-05T07:23:42;2.67;;;1.53;;
10041;SDS011;5061;49.068;12.058;2023-02-05T07:27:02;1.70;;;1.60;;
10041;SDS011;5061;49.068;12.058;2023-02-05T07:30:23;1.73;;;1.30;;
10041;SDS011;5061;49.068;12.058;2023-02-05T07:33:45;2.13;;;1.67;;
10041;SDS011;5061;49.068;12.058;2023-02-05T07:37:06;2.27;;;1.47;;
10041;SDS011;5061;49.068;12.058;2023-02-05T07:40:26;1.50;;;1.40;;
10041;SDS011;5061;49.068;12.058;2023-02-05T07:43:50;1.87;;;1.43;;
10041;SDS011;5061;49.068;12.058;2023-02-05T07:47:12;1.80;;;1.60;;
10041;SDS011;5061;49.068;12.058;2023-02-05T07:50:32;4.30;;;2.87;;
10041;SDS011;5061;49.068;12.058;2023-02-05T07:53:58;9.60;;;5.37;;
10041;SDS011;5061;49.068;12.058;2023-02-05T07:57:19;7.23;;;4.43;;
10041;SDS011;5061;49.068;12.058;2023-02-05T08:00:39;7.33;;;3.27;;
10041;SDS011;5061;49.068;12.058;2023-02-05T08:04:00;4.90;;;3.93;;
10041;SDS011;5061;49.068;12.058;2023-02-05T08:07:24;5.30;;;3.33;;
10041;SDS011;5061;49.068;12.058;2023-02-05T08:10:44;3.70;;;2.77;;
10041;SDS011;5061;49.068;12.058;2023-02-05T08:14:05;3.97;;;3.30;;
10041;SDS011;5061;49.068;12.058;2023-02-05T08:17:26;3.90;;;3.00;;
10041;SDS011;5061;49.068;12.058;2023-02-05T08:20:50;3.57;;;2.60;;
10041;SDS011;5061;49.068;12.058;2023-02-05T08:24:11;7.03;;;2.80;;
10041;SDS011;5061;49.068;12.058;2023-02-05T08:27:35;3.60;;;3.10;;
10041;SDS011;5061;49.068;12.058;2023-02-05T08:30:57;4.20;;;2.33;;
10041;SDS011;5061;49.068;12.058;2023-02-05T08:34:17;3.37;;;2.20;;
10041;SDS011;5061;49.068;12.058;2023-02-05T08:37:38;3.30;;;2.27;;
10041;SDS011;5061;49.068;12.058;2023-02-05T08:41:02;3.10;;;2.50;;
10041;SDS011;5061;49.068;12.058;2023-02-05T08:44:23;3.30;;;2.13;;
10041;SDS011;5061;49.068;12.058;2023-02-05T08:47:44;2.50;;;2.30;;
10041;SDS011;5061;49.068;12.058;2023-02-05T08:51:07;4.93;;;2.70;;
10041;SDS011;5061;49.068;12.058;2023-02-05T08:54:29;3.73;;;2.53;;
10041;SDS011;5061;49.068;12.058;2023-02-05T08:57:55;3.37;;;2.27;;
10041;SDS011;5061;49.068;12.058;2023-02-05T09:01:16;2.93;;;2.20;;
10041;SDS011;5061;49.068;12.058;2023-02-05T09:04:46;2.97;;;2.13;;
10041;SDS011;5061;49.068;12.058;2023-02-05T09:08:07;5.80;;;2.23;;
10041;SDS011;5061;49.068;12.058;2023-02-05T09:11:34;2.37;;;2.17;;
10041;SDS011;5061;49.068;12.058;2023-02-05T09:15:08;4.67;;;3.00;;
10041;SDS011;5061;49.068;12.058;2023-02-05T09:18:35;3.13;;;2.00;;
10041;SDS011;5061;49.068;12.058;2023-02-05T09:21:55;3.73;;;2.63;;
10041;SDS011;5061;49.068;12.058;2023-02-05T09:25:16;3.17;;;2.40;;
10041;SDS011;5061;49.068;12.058;2023-02-05T09:28:37;3.80;;;2.50;;
10041;SDS011;5061;49.068;12.058;2023-02-05T09:32:05;4.60;;;2.87;;
10041;SDS011;5061;49.068;12.058;2023-02-05T09:35:30;7.27;;;2.70;;
10041;SDS011;5061;49.068;12.058;2023-02-05T09:38:51;2.70;;;2.17;;
10041;SDS011;5061;49.068;12.058;2023-02-05T09:42:22;5.87;;;3.03;;
10041;SDS011;5061;49.068;12.058;2023-02-05T09:53:22;4.63;;;3.30;;
10041;SDS011;5061;49.068;12.058;2023-02-05T09:56:49;8.37;;;3.77;;
10041;SDS011;5061;49.068;12.058;2023-02-05T10:00:16;8.77;;;5.20;;
10041;SDS011;5061;49.068;12.058;2023-02-05T10:03:46;7.00;;;4.10;;
10041;SDS011;5061;49.068;12.058;2023-02-05T10:07:17;12.63;;;6.20;;
10041;SDS011;5061;49.068;12.058;2023-02-05T10:10:53;7.17;;;3.97;;
10041;SDS011;5061;49.068;12.058;2023-02-05T10:32:41;3.43;;;2.90;;
10041;SDS011;5061;49.068;12.058;2023-02-05T10:36:05;3.37;;;3.07;;
10041;SDS011;5061;49.068;12.058;2023-02-05T10:39:28;3.97;;;3.03;;
10041;SDS011;5061;49.068;12.058;2023-02-05T10:42:53;4.60;;;3.50;;
10041;SDS011;5061;49.068;12.058;2023-02-05T10:46:25;6.57;;;3.10;;
10041;SDS011;5061;49.068;12.058;2023-02-05T10:50:04;4.97;;;3.60;;
10041;SDS011;5061;49.068;12.058;2023-02-05T10:53:33;4.13;;;3.73;;
10041;SDS011;5061;49.068;12.058;2023-02-05T10:56:55;4.67;;;4.00;;
10041;SDS011;5061;49.068;12.058;2023-02-05T11:00:18;6.00;;;3.77;;
10041;SDS011;5061;49.068;12.058;2023-02-05T11:03:44;4.00;;;2.93;;
10041;SDS011;5061;49.068;12.058;2023-02-05T11:07:31;2.90;;;2.57;;
10041;SDS011;5061;49.068;12.058;2023-02-05T11:10:55;4.67;;;3.00;;
10041;SDS011;5061;49.068;12.058;2023-02-05T11:14:20;3.40;;;2.80;;
10041;SDS011;5061;49.068;12.058;2023-02-05T11:17:48;5.83;;;2.50;;
10041;SDS011;5061;49.068;12.058;2023-02-05T11:21:11;3.57;;;2.40;;
10041;SDS011;5061;49.068;12.058;2023-02-05T11:24:34;5.47;;;4.10;;
10041;SDS011;5061;49.068;12.058;2023-02-05T11:28:03;13.53;;;6.27;;
10041;SDS011;5061;49.068;12.058;2023-02-05T11:31:28;9.70;;;5.30;;
10041;SDS011;5061;49.068;12.058;2023-02-05T11:35:04;10.40;;;5.90;;
10041;SDS011;5061;49.068;12.058;2023-02-05T11:38:51;7.30;;;4.53;;
10041;SDS011;5061;49.068;12.058;2023-02-05T11:45:40;4.17;;;3.10;;
10041;SDS011;5061;49.068;12.058;2023-02-05T11:49:13;6.80;;;2.87;;
10041;SDS011;5061;49.068;12.058;2023-02-05T11:52:41;3.20;;;2.60;;
10041;SDS011;5061;49.068;12.058;2023-02-05T11:56:06;6.20;;;3.93;;
10041;SDS011;5061;49.068;12.058;2023-02-05T11:59:30;5.10;;;3.40;;
10041;SDS011;5061;49.068;12.058;2023-02-05T12:03:02;4.47;;;3.37;;
10041;SDS011;5061;49.068;12.058;2023-02-05T12:06:36;3.10;;;2.80;;
10041;SDS011;5061;49.068;12.058;2023-02-05T12:10:00;4.60;;;3.50;;
10041;SDS011;5061;49.068;12.058;2023-02-05T12:21:26;6.03;;;3.07;;
10041;SDS011;5061;49.068;12.058;2023-02-05T12:28:04;4.20;;;3.27;;
10041;SDS011;5061;49.068;12.058;2023-02-05T12:47:08;3.40;;;2.80;;
10041;SDS011;5061;49.068;12.058;2023-02-05T12:51:05;3.50;;;2.67;;
10041;SDS011;5061;49.068;12.058;2023-02-05T12:58:12;7.00;;;4.23;;
10041;SDS011;5061;49.068;12.058;2023-02-05T13:01:43;5.07;;;3.53;;
10041;SDS011;5061;49.068;12.058;2023-02-05T13:08:52;4.10;;;3.07;;
10041;SDS011;5061;49.068;12.058;2023-02-05T13:12:25;5.23;;;3.00;;
10041;SDS011;5061;49.068;12.058;2023-02-05T13:15:54;3.57;;;3.10;;
10041;SDS011;5061;49.068;12.058;2023-02-05T13:22:54;3.47;;;2.77;;
10041;SDS011;5061;49.068;12.058;2023-02-05T13:26:37;4.60;;;2.70;;
10041;SDS011;5061;49.068;12.058;2023-02-05T13:30:20;4.43;;;3.20;;
10041;SDS011;5061;49.068;12.058;2023-02-05T13:40:48;5.43;;;4.17;;
10041;SDS011;5061;49.068;12.058;2023-02-05T14:06:20;32.30;;;11.80;;
10041;SDS011;5061;49.068;12.058;2023-02-05T14:09:53;36.13;;;14.03;;
10041;SDS011;5061;49.068;12.058;2023-02-05T14:13:22;24.30;;;10.40;;
10041;SDS011;5061;49.068;12.058;2023-02-05T14:16:49;17.33;;;8.20;;
10041;SDS011;5061;49.068;12.058;2023-02-05T14:30:57;5.20;;;2.93;;
10041;SDS011;5061;49.068;12.058;2023-02-05T14:34:25;6.30;;;4.00;;
10041;SDS011;5061;49.068;12.058;2023-02-05T14:37:53;9.17;;;5.27;;
10041;SDS011;5061;49.068;12.058;2023-02-05T14:41:22;5.17;;;3.67;;
10041;SDS011;5061;49.068;12.058;2023-02-05T14:48:24;4.53;;;3.50;;
10041;SDS011;5061;49.068;12.058;2023-02-05T14:51:53;3.77;;;2.90;;
10041;SDS011;5061;49.068;12.058;2023-02-05T14:55:20;6.10;;;3.97;;
10041;SDS011;5061;49.068;12.058;2023-02-05T14:58:55;7.03;;;4.13;;
10041;SDS011;5061;49.068;12.058;2023-02-05T15:06:17;7.93;;;5.07;;
10041;SDS011;5061;49.068;12.058;2023-02-05T15:13:00;7.50;;;4.67;;
10041;SDS011;5061;49.068;12.058;2023-02-05T15:16:29;7.27;;;4.40;;
10041;SDS011;5061;49.068;12.058;2023-02-05T15:19:52;6.70;;;4.50;;
10041;SDS011;5061;49.068;12.058;2023-02-05T15:23:17;5.60;;;4.00;;
10041;SDS011;5061;49.068;12.058;2023-02-05T15:30:48;4.60;;;3.60;;
10041;SDS011;5061;49.068;12.058;2023-02-05T15:38:19;5.83;;;4.00;;
10041;SDS011;5061;49.068;12.058;2023-02-05T15:41:42;5.87;;;4.07;;
10041;SDS011;5061;49.068;12.058;2023-02-05T15:48:37;4.47;;;3.73;;
10041;SDS011;5061;49.068;12.058;2023-02-05T15:51:59;4.80;;;3.90;;
10041;SDS011;5061;49.068;12.058;2023-02-05T15:55:21;3.50;;;2.57;;
10041;SDS011;5061;49.068;12.058;2023-02-05T15:58:46;3.03;;;2.70;;
10041;SDS011;5061;49.068;12.058;2023-02-05T16:02:26;2.77;;;2.40;;
10041;SDS011;5061;49.068;12.058;2023-02-05T16:05:51;4.10;;;2.63;;
10041;SDS011;5061;49.068;12.058;2023-02-05T16:09:16;2.37;;;2.10;;
10041;SDS011;5061;49.068;12.058;2023-02-05T16:12:55;3.43;;;2.43;;
10041;SDS011;5061;49.068;12.058;2023-02-05T16:16:20;3.40;;;2.40;;
10041;SDS011;5061;49.068;12.058;2023-02-05T16:19:44;8.10;;;3.90;;
10041;SDS011;5061;49.068;12.058;2023-02-05T16:23:17;11.50;;;5.10;;
10041;SDS011;5061;49.068;12.058;2023-02-05T16:26:48;9.50;;;5.27;;
10041;SDS011;5061;49.068;12.058;2023-02-05T16:37:25;8.93;;;4.03;;
10041;SDS011;5061;49.068;12.058;2023-02-05T16:40:50;4.20;;;3.10;;
10041;SDS011;5061;49.068;12.058;2023-02-05T16:44:26;4.10;;;3.10;;
10041;SDS011;5061;49.068;12.058;2023-02-05T16:58:47;2.57;;;2.20;;
10041;SDS011;5061;49.068;12.058;2023-02-05T17:02:21;3.27;;;2.83;;
10041;SDS011;5061;49.068;12.058;2023-02-05T17:05:56;3.30;;;3.00;;
10041;SDS011;5061;49.068;12.058;2023-02-05T17:09:36;3.03;;;2.20;;
10041;SDS011;5061;49.068;12.058;2023-02-05T17:12:58;2.40;;;2.20;;
10041;SDS011;5061;49.068;12.058;2023-02-05T17:16:25;2.53;;;2.33;;
10041;SDS011;5061;49.068;12.058;2023-02-05T17:20:00;3.70;;;2.70;;
10041;SDS011;5061;49.068;12.058;2023-02-05T17:23:24;4.07;;;2.60;;
10041;SDS011;5061;49.068;12.058;2023-02-05T17:26:44;4.97;;;2.07;;
10041;SDS011;5061;49.068;12.058;2023-02-05T17:30:08;3.10;;;2.10;;
10041;SDS011;5061;49.068;12.058;2023-02-05T17:33:33;3.67;;;2.20;;
10041;SDS011;5061;49.068;12.058;2023-02-05T17:36:53;3.10;;;2.47;;
10041;SDS011;5061;49.068;12.058;2023-02-05T17:40:14;3.50;;;2.30;;
10041;SDS011;5061;49.068;12.058;2023-02-05T17:43:35;6.47;;;2.93;;
10041;SDS011;5061;49.068;12.058;2023-02-05T17:46:57;7.03;;;3.57;;
10041;SDS011;5061;49.068;12.058;2023-02-05T17:50:19;4.70;;;2.97;;
10041;SDS011;5061;49.068;12.058;2023-02-05T17:53:39;4.93;;;2.80;;
10041;SDS011;5061;49.068;12.058;2023-02-05T17:57:05;4.27;;;3.00;;
10041;SDS011;5061;49.068;12.058;2023-02-05T18:00:34;4.23;;;3.40;;
10041;SDS011;5061;49.068;12.058;2023-02-05T18:03:55;7.93;;;3.40;;
10041;SDS011;5061;49.068;12.058;2023-02-05T18:07:32;3.30;;;2.33;;
10041;SDS011;5061;49.068;12.058;2023-02-05T18:10:59;3.67;;;3.10;;
10041;SDS011;5061;49.068;12.058;2023-02-05T18:14:19;3.53;;;2.80;;
10041;SDS011;5061;49.068;12.058;2023-02-05T18:17:41;6.10;;;3.30;;
10041;SDS011;5061;49.068;12.058;2023-02-05T18:21:01;4.10;;;2.73;;
10041;SDS011;5061;49.068;12.058;2023-02-05T18:24:22;7.50;;;5.43;;
10041;SDS011;5061;49.068;12.058;2023-02-05T18:27:45;16.00;;;8.60;;
10041;SDS011;5061;49.068;12.058;2023-02-05T18:31:08;22.87;;;10.50;;
10041;SDS011;5061;49.068;12.058;2023-02-05T18:34:32;17.80;;;9.70;;
10041;SDS011;5061;49.068;12.058;2023-02-05T18:37:53;14.27;;;7.87;;
10041;SDS011;5061;49.068;12.058;2023-02-05T18:41:15;12.80;;;7.67;;
10041;SDS011;5061;49.068;12.058;2023-02-05T18:44:41;11.60;;;6.87;;
10041;SDS011;5061;49.068;12.058;2023-02-05T18:48:02;12.10;;;6.47;;
10041;SDS011;5061;49.068;12.058;2023-02-05T18:51:23;11.47;;;6.27;;
10041;SDS011;5061;49.068;12.058;2023-02-05T18:54:44;14.43;;;7.33;;
10041;SDS011;5061;49.068;12.058;2023-02-05T18:58:04;8.03;;;5.20;;
10041;SDS011;5061;49.068;12.058;2023-02-05T19:01:25;9.70;;;4.77;;
10041;SDS011;5061;49.068;12.058;2023-02-05T19:04:49;7.93;;;4.57;;
10041;SDS011;5061;49.068;12.058;2023-02-05T19:08:14;7.97;;;3.90;;
10041;SDS011;5061;49.068;12.058;2023-02-05T19:11:38;5.70;;;3.87;;
10041;SDS011;5061;49.068;12.058;2023-02-05T19:15:03;7.83;;;5.07;;
10041;SDS011;5061;49.068;12.058;2023-02-05T19:18:24;8.47;;;5.03;;
10041;SDS011;5061;49.068;12.058;2023-02-05T19:21:44;23.17;;;10.43;;
10041;SDS011;5061;49.068;12.058;2023-02-05T19:25:06;33.80;;;14.90;;
10041;SDS011;5061;49.068;12.058;2023-02-05T19:28:27;37.97;;;16.60;;
10041;SDS011;5061;49.068;12.058;2023-02-05T19:31:48;23.47;;;12.83;;
10041;SDS011;5061;49.068;12.058;2023-02-05T19:35:08;23.90;;;12.60;;
10041;SDS011;5061;49.068;12.058;2023-02-05T19:38:29;23.57;;;11.77;;
10041;SDS011;5061;49.068;12.058;2023-02-05T19:41:50;20.40;;;11.60;;
10041;SDS011;5061;49.068;12.058;2023-02-05T19:45:11;25.23;;;12.47;;
10041;SDS011;5061;49.068;12.058;2023-02-05T19:48:32;14.17;;;8.90;;
10041;SDS011;5061;49.068;12.058;2023-02-05T19:51:53;22.63;;;10.40;;
10041;SDS011;5061;49.068;12.058;2023-02-05T19:55:15;19.50;;;9.93;;
10041;SDS011;5061;49.068;12.058;2023-02-05T19:58:36;13.17;;;7.80;;
10041;SDS011;5061;49.068;12.058;2023-02-05T20:01:58;11.40;;;6.13;;
10041;SDS011;5061;49.068;12.058;2023-02-05T20:05:19;10.53;;;5.97;;
10041;SDS011;5061;49.068;12.058;2023-02-05T20:08:40;6.80;;;4.60;;
10041;SDS011;5061;49.068;12.058;2023-02-05T20:12:02;10.87;;;5.13;;
10041;SDS011;5061;49.068;12.058;2023-02-05T20:15:22;10.30;;;5.33;;
10041;SDS011;5061;49.068;12.058;2023-02-05T20:18:43;6.63;;;4.10;;
10041;SDS011;5061;49.068;12.058;2023-02-05T20:22:05;5.93;;;4.07;;
10041;SDS011;5061;49.068;12.058;2023-02-05T20:25:25;7.10;;;3.63;;
10041;SDS011;5061;49.068;12.058;2023-02-05T20:28:47;6.87;;;3.83;;
10041;SDS011;5061;49.068;12.058;2023-02-05T20:32:27;6.30;;;3.50;;
10041;SDS011;5061;49.068;12.058;2023-02-05T20:35:48;5.13;;;3.10;;
10041;SDS011;5061;49.068;12.058;2023-02-05T20:39:09;4.27;;;3.10;;
10041;SDS011;5061;49.068;12.058;2023-02-05T20:42:30;7.10;;;4.30;;
10041;SDS011;5061;49.068;12.058;2023-02-05T20:45:50;8.50;;;3.93;;
10041;SDS011;5061;49.068;12.058;2023-02-05T20:49:11;9.73;;;5.17;;
10041;SDS011;5061;49.068;12.058;2023-02-05T20:52:31;8.70;;;4.57;;
10041;SDS011;5061;49.068;12.058;2023-02-05T20:55:52;7.23;;;3.77;;
10041;SDS011;5061;49.068;12.058;2023-02-05T20:59:38;3.83;;;2.90;;
10041;SDS011;5061;49.068;12.058;2023-02-05T21:02:58;10.17;;;3.63;;
10041;SDS011;5061;49.068;12.058;2023-02-05T21:06:20;3.90;;;2.97;;
10041;SDS011;5061;49.068;12.058;2023-02-05T21:09:42;5.30;;;2.70;;
10041;SDS011;5061;49.068;12.058;2023-02-05T21:13:02;4.53;;;2.60;;
10041;SDS011;5061;49.068;12.058;2023-02-05T21:16:23;4.33;;;2.77;;
10041;SDS011;5061;49.068;12.058;2023-02-05T21:19:45;3.90;;;2.80;;
10041;SDS011;5061;49.068;12.058;2023-02-05T21:23:06;4.90;;;3.40;;
10041;SDS011;5061;49.068;12.058;2023-02-05T21:26:28;5.00;;;3.43;;
10041;SDS011;5061;49.068;12.058;2023-02-05T21:29:50;5.90;;;3.60;;
10041;SDS011;5061;49.068;12.058;2023-02-05T21:33:18;6.00;;;3.67;;
10041;SDS011;5061;49.068;12.058;2023-02-05T21:36:39;6.57;;;3.80;;
10041;SDS011;5061;49.068;12.058;2023-02-05T21:39:59;4.67;;;3.27;;
10041;SDS011;5061;49.068;12.058;2023-02-05T21:43:20;4.10;;;2.60;;
10041;SDS011;5061;49.068;12.058;2023-02-05T21:46:41;4.50;;;3.10;;
10041;SDS011;5061;49.068;12.058;2023-02-05T21:50:05;4.70;;;2.80;;
10041;SDS011;5061;49.068;12.058;2023-02-05T21:53:26;4.93;;;2.67;;
10041;SDS011;5061;49.068;12.058;2023-02-05T21:56:47;4.20;;;2.40;;
10041;SDS011;5061;49.068;12.058;2023-02-05T22:00:08;2.80;;;2.07;;
10041;SDS011;5061;49.068;12.058;2023-02-05T22:03:29;3.83;;;2.83;;
10041;SDS011;5061;49.068;12.058;2023-02-05T22:06:50;3.63;;;2.67;;
10041;SDS011;5061;49.068;12.058;2023-02-05T22:10:10;4.90;;;3.30;;
10041;SDS011;5061;49.068;12.058;2023-02-05T22:13:36;6.33;;;3.50;;
10041;SDS011;5061;49.068;12.058;2023-02-05T22:16:58;19.87;;;3.80;;
10041;SDS011;5061;49.068;12.058;2023-02-05T22:20:19;5.70;;;3.90;;
10041;SDS011;5061;49.068;12.058;2023-02-05T22:23:40;8.50;;;4.87;;
10041;SDS011;5061;49.068;12.058;2023-02-05T22:27:02;8.27;;;4.67;;
10041;SDS011;5061;49.068;12.058;2023-02-05T22:30:22;8.13;;;4.73;;
10041;SDS011;5061;49.068;12.058;2023-02-05T22:33:44;6.93;;;4.03;;
10041;SDS011;5061;49.068;12.058;2023-02-05T22:37:06;8.70;;;4.60;;
10041;SDS011;5061;49.068;12.058;2023-02-05T22:40:26;12.37;;;5.80;;
10041;SDS011;5061;49.068;12.058;2023-02-05T22:43:47;8.30;;;4.87;;
10041;SDS011;5061;49.068;12.058;2023-02-05T22:47:08;7.23;;;4.70;;
10041;SDS011;5061;49.068;12.058;2023-02-05T22:50:28;10.80;;;5.17;;
10041;SDS011;5061;49.068;12.058;2023-02-05T22:53:51;9.07;;;5.20;;
10041;SDS011;5061;49.068;12.058;2023-02-05T22:57:12;12.50;;;5.47;;
10041;SDS011;5061;49.068;12.058;2023-02-05T23:00:33;10.57;;;5.57;;
10041;SDS011;5061;49.068;12.058;2023-02-05T23:03:54;8.70;;;5.23;;
10041;SDS011;5061;49.068;12.058;2023-02-05T23:07:16;8.30;;;4.50;;
10041;SDS011;5061;49.068;12.058;2023-02-05T23:10:36;7.93;;;4.57;;
10041;SDS011;5061;49.068;12.058;2023-02-05T23:13:57;12.47;;;5.67;;
10041;SDS011;5061;49.068;12.058;2023-02-05T23:17:19;9.70;;;5.13;;
10041;SDS011;5061;49.068;12.058;2023-02-05T23:20:40;6.70;;;4.80;;
10041;SDS011;5061;49.068;12.058;2023-02-05T23:24:00;8.63;;;5.27;;
10041;SDS011;5061;49.068;12.058;2023-02-05T23:27:21;9.53;;;6.00;;